Time;durP1;ratioP1;P1;durP2;ratioP2;P2;SDS_P1;SDS_P2;PMS_P1;PMS_P2;Temp;Humidity;BMP_temperature;BMP_pressure;BME280_temperature;BME280_humidity;BME280_pressure;Samples;Min_cycle;Max_cycle;Signal;HPM_P1;HPM_P2
2022/03/22 00:01:48;;;;;;;17.13;11.45;;;6.30;34.40;;;;;;5053300;28;20071;-76
2022/03/22 00:04:14;;;;;;;21.73;10.88;;;6.20;34.60;;;;;;5053890;28;20040;-75
2022/03/22 00:06:41;;;;;;;19.73;11.23;;;6.20;35.00;;;;;;5053267;28;20033;-75
2022/03/22 00:09:07;;;;;;;20.83;12.05;;;6.10;35.20;;;;;;5053859;28;20036;-75
2022/03/22 00:11:33;;;;;;;19.00;10.82;;;6.00;35.40;;;;;;5053218;28;20021;-75
2022/03/22 00:13:59;;;;;;;16.73;12.05;;;6.00;35.40;;;;;;5053657;28;20032;-75
2022/03/22 00:16:25;;;;;;;23.95;11.80;;;5.90;35.40;;;;;;5052815;28;20072;-75
2022/03/22 00:18:51;;;;;;;26.60;12.70;;;5.90;35.50;;;;;;5053771;28;20086;-75
2022/03/22 00:21:19;;;;;;;21.75;11.93;;;5.80;35.70;;;;;;5053313;28;20114;-76
2022/03/22 00:23:46;;;;;;;22.98;11.85;;;5.80;35.80;;;;;;5053625;28;20036;-76
2022/03/22 00:26:12;;;;;;;22.90;12.57;;;5.70;35.50;;;;;;5053538;28;20028;-76
2022/03/22 00:28:38;;;;;;;18.83;12.25;;;5.60;36.00;;;;;;5052660;28;20483;-76
2022/03/22 00:31:04;;;;;;;25.15;12.32;;;5.60;36.10;;;;;;5053458;28;20462;-76
2022/03/22 00:33:30;;;;;;;20.05;12.10;;;5.50;36.00;;;;;;5052759;28;20067;-75
2022/03/22 00:35:57;;;;;;;25.05;12.15;;;5.50;36.30;;;;;;5053346;28;20025;-76
2022/03/22 00:38:22;;;;;;;20.20;13.68;;;5.50;36.40;;;;;;5052601;28;20562;-76
2022/03/22 00:40:48;;;;;;;20.25;12.38;;;5.50;36.50;;;;;;5053319;28;20120;-75
2022/03/22 00:43:14;;;;;;;23.85;12.85;;;5.40;36.60;;;;;;5053296;28;20493;-75
2022/03/22 00:45:40;;;;;;;27.40;13.52;;;5.30;36.60;;;;;;5052340;28;20477;-76
2022/03/22 00:48:09;;;;;;;23.13;13.27;;;5.30;36.80;;;;;;5053096;28;20029;-76
2022/03/22 00:50:37;;;;;;;23.50;12.73;;;5.30;37.40;;;;;;5052490;28;20029;-75
2022/03/22 00:53:05;;;;;;;27.50;13.45;;;5.20;37.60;;;;;;5053113;28;20085;-74
2022/03/22 00:55:32;;;;;;;24.80;13.15;;;5.20;37.70;;;;;;5052041;28;20048;-74
2022/03/22 00:57:58;;;;;;;19.90;12.82;;;5.20;37.80;;;;;;5052716;28;20525;-76
2022/03/22 01:00:26;;;;;;;21.88;13.20;;;5.20;37.80;;;;;;5052093;28;20347;-76
2022/03/22 01:02:54;;;;;;;23.70;13.57;;;5.20;38.20;;;;;;5052966;28;20061;-75
2022/03/22 01:05:22;;;;;;;29.90;14.68;;;5.10;38.20;;;;;;5052438;28;20033;-77
2022/03/22 01:07:50;;;;;;;19.17;12.40;;;5.10;38.30;;;;;;5052353;28;20113;-75
2022/03/22 01:10:18;;;;;;;23.83;13.13;;;5.10;38.20;;;;;;5052815;28;20025;-75
2022/03/22 01:12:45;;;;;;;30.05;13.23;;;5.10;38.30;;;;;;5051511;28;20094;-75
2022/03/22 01:15:18;;;;;;;20.90;12.95;;;5.10;38.40;;;;;;5052175;28;20021;-75
2022/03/22 01:17:45;;;;;;;20.73;12.88;;;5.00;38.30;;;;;;5051974;28;20031;-75
2022/03/22 01:20:11;;;;;;;20.73;13.55;;;5.00;38.40;;;;;;5052550;28;20075;-75
2022/03/22 01:22:39;;;;;;;27.00;13.35;;;4.90;38.10;;;;;;5051950;28;20386;-74
2022/03/22 01:25:11;;;;;;;21.63;13.25;;;4.90;38.40;;;;;;5052432;28;20032;-75
2022/03/22 01:27:37;;;;;;;25.10;13.90;;;4.90;38.60;;;;;;5051752;28;20421;-75
2022/03/22 01:30:05;;;;;;;24.38;13.07;;;4.80;38.60;;;;;;5051967;28;20415;-76
2022/03/22 01:32:31;;;;;;;21.83;13.27;;;4.80;38.90;;;;;;5051789;28;20458;-75
2022/03/22 01:34:57;;;;;;;21.13;13.18;;;4.80;39.20;;;;;;5051879;28;20116;-75
2022/03/22 01:37:22;;;;;;;22.88;13.70;;;4.80;39.40;;;;;;5051338;28;20112;-75
2022/03/22 01:39:48;;;;;;;20.67;12.75;;;4.80;39.60;;;;;;5052165;28;20407;-75
2022/03/22 01:42:14;;;;;;;21.52;12.88;;;4.80;39.50;;;;;;5052283;28;20032;-75
2022/03/22 01:44:39;;;;;;;23.38;13.00;;;4.80;39.50;;;;;;5051752;28;20040;-76
2022/03/22 01:47:05;;;;;;;27.83;13.77;;;4.80;39.50;;;;;;5051935;28;20071;-74
2022/03/22 01:49:31;;;;;;;22.33;13.13;;;4.80;39.80;;;;;;5051375;28;20074;-76
2022/03/22 01:51:57;;;;;;;22.85;13.55;;;4.80;39.80;;;;;;5051662;28;20096;-74
2022/03/22 01:54:24;;;;;;;22.73;13.45;;;4.80;39.70;;;;;;5051711;28;20110;-74
2022/03/22 01:56:50;;;;;;;28.73;13.57;;;4.80;40.00;;;;;;5051704;28;20044;-74
2022/03/22 01:59:34;;;;;;;22.25;12.73;;;4.80;40.00;;;;;;5051813;28;20033;-75
2022/03/22 02:07:34;;;;;;;24.20;14.30;;;4.70;40.30;;;;;;5051159;28;20040;-75
2022/03/22 02:09:59;;;;;;;26.05;13.45;;;4.70;40.50;;;;;;5051851;28;20075;-75
2022/03/22 02:12:26;;;;;;;22.45;12.85;;;4.70;40.70;;;;;;5051131;28;20413;-76
2022/03/22 02:14:52;;;;;;;25.95;13.65;;;4.70;40.70;;;;;;5051793;28;20025;-76
2022/03/22 02:17:18;;;;;;;25.90;14.40;;;4.80;40.60;;;;;;5051776;28;20029;-74
2022/03/22 02:19:47;;;;;;;21.48;13.35;;;4.70;40.30;;;;;;5050911;28;20025;-74
2022/03/22 02:22:17;;;;;;;25.73;13.50;;;4.70;40.50;;;;;;5051557;28;20068;-76
2022/03/22 02:24:43;;;;;;;23.67;13.77;;;4.60;40.70;;;;;;5052127;28;20029;-75
2022/03/22 02:27:09;;;;;;;26.92;14.27;;;4.70;41.00;;;;;;5055295;28;20052;-75
2022/03/22 02:29:35;;;;;;;22.23;13.65;;;4.60;41.00;;;;;;5055256;28;20386;-76
2022/03/22 02:32:05;;;;;;;29.08;14.13;;;4.60;41.30;;;;;;5055325;28;20458;-75
2022/03/22 02:34:34;;;;;;;19.85;12.60;;;4.60;41.20;;;;;;5055090;28;20028;-75
2022/03/22 02:37:00;;;;;;;24.23;13.55;;;4.50;41.50;;;;;;5055513;28;20044;-76
2022/03/22 02:39:26;;;;;;;23.08;13.43;;;4.60;41.70;;;;;;5055526;28;20025;-75
2022/03/22 02:41:52;;;;;;;22.33;12.70;;;4.60;41.90;;;;;;5055795;28;20028;-74
2022/03/22 02:44:19;;;;;;;23.98;12.95;;;4.50;42.10;;;;;;5055443;28;20427;-75
2022/03/22 02:46:45;;;;;;;22.38;12.68;;;4.50;42.00;;;;;;5054749;28;20373;-75
2022/03/22 02:49:12;;;;;;;29.42;13.55;;;4.60;42.10;;;;;;5055319;28;20021;-75
2022/03/22 02:51:37;;;;;;;26.83;13.43;;;4.60;42.10;;;;;;5054728;28;20086;-75
2022/03/22 02:54:03;;;;;;;27.83;13.98;;;4.60;42.60;;;;;;5053854;28;20025;-75
2022/03/22 02:56:29;;;;;;;24.15;13.13;;;4.60;42.60;;;;;;5054655;28;20045;-75
2022/03/22 02:58:54;;;;;;;24.83;12.65;;;4.60;42.50;;;;;;5055255;28;20032;-75
2022/03/22 03:01:20;;;;;;;25.83;13.65;;;4.60;42.60;;;;;;5055300;28;20037;-74
2022/03/22 03:03:46;;;;;;;22.77;13.93;;;4.60;42.90;;;;;;5054344;28;20066;-75
2022/03/22 03:06:12;;;;;;;24.92;13.15;;;4.60;42.80;;;;;;5054915;28;20025;-75
2022/03/22 03:08:37;;;;;;;25.00;13.75;;;4.50;42.90;;;;;;5054564;28;20104;-74
2022/03/22 03:11:04;;;;;;;23.58;13.43;;;4.50;43.80;;;;;;5055167;28;20493;-76
2022/03/22 03:14:38;;;;;;;22.90;13.77;;;4.50;43.40;;;;;;5054804;28;20036;-73
2022/03/22 03:16:16;;;;;;;22.95;13.60;;;4.50;43.50;;;;;;5034460;28;20518;-75
2022/03/22 03:18:41;;;;;;;30.95;14.38;;;4.50;43.80;;;;;;5034099;28;20112;-75
2022/03/22 03:21:07;;;;;;;27.42;13.80;;;4.50;44.00;;;;;;5034818;28;20026;-76
2022/03/22 03:23:33;;;;;;;20.42;14.15;;;4.50;44.00;;;;;;5034067;28;20033;-76
2022/03/22 03:25:59;;;;;;;24.10;14.30;;;4.40;44.20;;;;;;5034769;28;20025;-74
2022/03/22 03:28:24;;;;;;;26.50;14.60;;;4.40;44.50;;;;;;5050175;28;20060;-76
2022/03/22 03:30:50;;;;;;;22.98;14.02;;;4.40;44.80;;;;;;5033968;28;20068;-76
2022/03/22 03:33:16;;;;;;;24.33;13.63;;;4.40;44.90;;;;;;5034608;28;20371;-75
2022/03/22 03:35:41;;;;;;;25.58;15.02;;;4.40;44.80;;;;;;5033755;28;20034;-75
2022/03/22 03:38:07;;;;;;;26.23;14.35;;;4.40;44.90;;;;;;5033958;28;20045;-76
2022/03/22 03:43:21;;;;;;;24.65;14.45;;;4.30;45.50;;;;;;5043928;28;20397;-75
2022/03/22 03:48:32;;;;;;;21.52;13.20;;;4.20;45.60;;;;;;5053774;28;20124;-77
2022/03/22 03:50:58;;;;;;;25.75;14.18;;;4.20;45.50;;;;;;5054067;28;20405;-74
2022/03/22 03:53:23;;;;;;;26.67;14.88;;;4.20;45.50;;;;;;5053936;28;20112;-75
2022/03/22 03:55:49;;;;;;;30.70;15.15;;;4.20;45.40;;;;;;5053608;28;20044;-75
2022/03/22 03:58:15;;;;;;;27.58;14.60;;;4.20;45.30;;;;;;5054064;28;20112;-75
2022/03/22 04:00:41;;;;;;;30.23;14.93;;;4.20;45.60;;;;;;5053563;28;20033;-76
2022/03/22 04:03:07;;;;;;;33.35;15.68;;;4.20;45.40;;;;;;5054139;28;20025;-76
2022/03/22 04:08:17;;;;;;;23.83;14.30;;;4.20;45.00;;;;;;5054003;28;20040;-75
2022/03/22 04:10:43;;;;;;;24.33;14.95;;;4.20;45.20;;;;;;5053320;28;20025;-76
2022/03/22 04:13:08;;;;;;;27.58;14.93;;;4.10;45.40;;;;;;5054150;28;20029;-75
2022/03/22 04:15:34;;;;;;;27.23;14.80;;;4.10;45.60;;;;;;5053261;28;20420;-75
2022/03/22 04:18:00;;;;;;;29.65;15.30;;;4.10;45.50;;;;;;5053924;28;20040;-75
2022/03/22 04:20:26;;;;;;;31.67;15.45;;;4.00;45.60;;;;;;5053681;28;20029;-75
2022/03/22 04:22:52;;;;;;;33.10;15.65;;;4.00;45.80;;;;;;5052417;28;20029;-75
2022/03/22 04:25:18;;;;;;;28.95;16.02;;;4.00;46.20;;;;;;5052454;28;20025;-75
2022/03/22 04:33:13;;;;;;;34.22;15.30;;;4.00;46.70;;;;;;5052999;28;20123;-75
2022/03/22 04:35:39;;;;;;;27.20;15.52;;;4.00;47.00;;;;;;5051725;28;20071;-77
2022/03/22 04:38:05;;;;;;;30.85;15.70;;;4.00;47.00;;;;;;5051997;28;20387;-75
2022/03/22 04:40:31;;;;;;;30.40;14.70;;;4.00;47.00;;;;;;5052155;28;20477;-75
2022/03/22 04:42:57;;;;;;;29.35;15.93;;;4.00;47.00;;;;;;5051436;28;20021;-75
2022/03/22 04:45:23;;;;;;;32.25;15.73;;;4.00;47.00;;;;;;5052037;28;20025;-75
2022/03/22 04:47:49;;;;;;;25.92;15.10;;;3.90;47.10;;;;;;5049641;28;20033;-75
2022/03/22 04:50:16;;;;;;;21.95;15.10;;;3.90;47.80;;;;;;5052015;28;20017;-75
2022/03/22 04:58:10;;;;;;;26.13;16.25;;;3.90;47.90;;;;;;5052337;28;20048;-76
2022/03/22 05:00:36;;;;;;;27.23;16.20;;;3.90;47.90;;;;;;5052413;28;20029;-76
2022/03/22 05:03:03;;;;;;;28.08;16.52;;;3.90;48.00;;;;;;5052842;28;20029;-76
2022/03/22 05:08:13;;;;;;;28.33;15.90;;;3.90;48.00;;;;;;5052557;28;20166;-74
2022/03/22 05:10:39;;;;;;;26.23;16.15;;;3.90;48.10;;;;;;5051934;28;20112;-75
2022/03/22 05:13:05;;;;;;;25.60;15.35;;;3.90;48.30;;;;;;5052435;28;20063;-75
2022/03/22 05:15:32;;;;;;;26.52;17.27;;;3.90;48.30;;;;;;5052041;28;20029;-74
2022/03/22 05:17:58;;;;;;;34.60;17.80;;;3.80;48.40;;;;;;5051680;28;20060;-74
2022/03/22 05:20:24;;;;;;;28.05;16.67;;;3.90;48.50;;;;;;5052455;28;20029;-75
2022/03/22 05:22:50;;;;;;;28.65;15.98;;;3.90;48.80;;;;;;5051673;28;20029;-74
2022/03/22 05:25:17;;;;;;;37.58;17.45;;;3.90;48.60;;;;;;5052325;28;20021;-75
2022/03/22 05:27:42;;;;;;;30.63;15.75;;;4.00;48.60;;;;;;5051067;28;20029;-75
2022/03/22 05:30:08;;;;;;;36.83;16.70;;;4.00;48.40;;;;;;5032691;28;20060;-75
2022/03/22 05:32:34;;;;;;;31.60;16.20;;;4.00;48.30;;;;;;5032819;28;20075;-75
2022/03/22 05:35:00;;;;;;;33.28;17.30;;;4.10;48.40;;;;;;5044975;28;20052;-75
2022/03/22 05:37:26;;;;;;;28.65;16.33;;;4.20;48.00;;;;;;5051994;28;20048;-74
2022/03/22 05:39:52;;;;;;;33.20;16.67;;;4.20;47.70;;;;;;5051719;28;20414;-74
2022/03/22 05:42:18;;;;;;;37.22;17.33;;;4.20;47.70;;;;;;5052170;28;20032;-74
2022/03/22 05:44:44;;;;;;;26.88;16.38;;;4.20;47.60;;;;;;5053147;28;20078;-75
2022/03/22 05:47:10;;;;;;;35.83;17.15;;;4.30;48.20;;;;;;5065922;28;20040;-73
2022/03/22 05:49:37;;;;;;;30.45;16.83;;;4.30;47.80;;;;;;5057967;28;20037;-74
2022/03/22 05:52:03;;;;;;;31.20;16.88;;;4.30;47.70;;;;;;5067247;28;20047;-74
2022/03/22 05:54:29;;;;;;;38.85;18.38;;;4.30;47.60;;;;;;5052097;28;20037;-72
2022/03/22 05:56:55;;;;;;;40.03;18.63;;;4.30;47.40;;;;;;5051170;28;20049;-74
2022/03/22 05:59:21;;;;;;;36.75;17.40;;;4.40;47.60;;;;;;5051361;28;20143;-75
2022/03/22 06:01:47;;;;;;;31.60;17.48;;;4.40;47.40;;;;;;5051367;28;20373;-75
2022/03/22 06:04:13;;;;;;;33.70;17.85;;;4.40;47.10;;;;;;5051691;28;20454;-76
2022/03/22 06:06:39;;;;;;;30.30;17.63;;;4.40;47.20;;;;;;5051672;28;20029;-74
2022/03/22 06:09:05;;;;;;;33.65;18.60;;;4.50;47.30;;;;;;5051428;28;20021;-75
2022/03/22 06:11:35;;;;;;;34.47;18.67;;;4.50;47.10;;;;;;5051628;28;20021;-76
2022/03/22 06:14:04;;;;;;;36.85;18.55;;;4.60;47.10;;;;;;5050770;28;20029;-76
2022/03/22 06:16:30;;;;;;;32.35;18.27;;;4.60;46.90;;;;;;5051597;28;20036;-75
2022/03/22 06:18:56;;;;;;;35.85;18.30;;;4.70;47.00;;;;;;5051122;28;20029;-76
2022/03/22 06:21:22;;;;;;;33.20;18.05;;;4.70;47.00;;;;;;5051287;28;20104;-75
2022/03/22 06:23:48;;;;;;;30.83;17.48;;;4.70;46.90;;;;;;5050793;28;20145;-76
2022/03/22 06:26:14;;;;;;;31.20;18.00;;;4.80;46.90;;;;;;5051574;28;20143;-76
2022/03/22 06:28:41;;;;;;;40.95;18.65;;;4.80;46.80;;;;;;5051195;28;20037;-76
2022/03/22 06:31:07;;;;;;;36.17;18.75;;;4.80;46.70;;;;;;5051328;28;20025;-75
2022/03/22 06:33:33;;;;;;;32.35;17.75;;;4.90;46.40;;;;;;5051664;28;20052;-75
2022/03/22 06:35:59;;;;;;;31.80;18.17;;;4.90;46.10;;;;;;5050800;28;20029;-75
2022/03/22 06:38:25;;;;;;;33.88;18.05;;;4.90;45.60;;;;;;5051379;28;20037;-76
2022/03/22 06:40:51;;;;;;;30.27;16.88;;;5.00;45.40;;;;;;5050626;28;20146;-76
2022/03/22 06:43:18;;;;;;;31.92;17.23;;;5.00;45.40;;;;;;5050971;28;20437;-76
2022/03/22 06:45:45;;;;;;;26.52;18.08;;;5.10;45.00;;;;;;5050787;28;20032;-75
2022/03/22 06:48:12;;;;;;;31.77;18.13;;;5.10;44.50;;;;;;5051199;28;20024;-75
2022/03/22 06:50:39;;;;;;;27.75;16.30;;;5.20;44.40;;;;;;5051359;28;20405;-75
2022/03/22 06:53:06;;;;;;;28.08;17.15;;;5.20;44.10;;;;;;5050604;28;20025;-75
2022/03/22 06:55:33;;;;;;;29.55;17.05;;;5.30;44.10;;;;;;5051088;28;20056;-76
2022/03/22 06:57:59;;;;;;;35.35;18.10;;;5.40;43.80;;;;;;5049968;28;20029;-76
2022/03/22 07:00:27;;;;;;;26.80;15.70;;;5.50;43.80;;;;;;5050948;28;20489;-75
2022/03/22 07:02:53;;;;;;;26.73;15.30;;;5.60;42.90;;;;;;5050596;28;20028;-76
2022/03/22 07:05:19;;;;;;;21.83;15.40;;;5.70;41.90;;;;;;5051305;28;20033;-76
2022/03/22 07:07:45;;;;;;;25.98;16.90;;;5.80;41.30;;;;;;5050569;28;20040;-76
2022/03/22 07:10:31;;;;;;;24.83;16.42;;;5.90;41.10;;;;;;5051307;28;20025;-75
2022/03/22 07:12:59;;;;;;;25.65;17.75;;;6.00;41.40;;;;;;5054264;28;20025;-76
2022/03/22 07:15:29;;;;;;;25.88;17.42;;;6.10;41.50;;;;;;5054909;28;20029;-75
2022/03/22 07:17:56;;;;;;;28.52;18.10;;;6.30;41.80;;;;;;5054130;28;20021;-74
2022/03/22 07:20:23;;;;;;;29.02;16.98;;;6.60;41.70;;;;;;5054866;28;20037;-76
2022/03/22 07:22:49;;;;;;;26.75;16.85;;;7.00;41.30;;;;;;5054248;28;20056;-76
2022/03/22 07:25:14;;;;;;;30.85;17.23;;;7.40;40.50;;;;;;5054602;28;20520;-77
2022/03/22 07:27:40;;;;;;;26.27;15.93;;;7.80;39.50;;;;;;5054538;28;20104;-76
2022/03/22 07:30:07;;;;;;;30.08;17.00;;;8.10;38.00;;;;;;5053639;28;20028;-78
2022/03/22 07:32:33;;;;;;;25.45;16.02;;;8.50;37.00;;;;;;5054982;28;20036;-76
2022/03/22 07:35:00;;;;;;;25.60;15.57;;;9.00;36.20;;;;;;5053390;28;20028;-77
2022/03/22 07:37:28;;;;;;;23.92;14.82;;;9.50;35.80;;;;;;5054044;28;20037;-77
2022/03/22 07:39:55;;;;;;;21.20;14.23;;;10.40;34.40;;;;;;5053579;28;20388;-76
2022/03/22 07:42:24;;;;;;;27.33;15.23;;;11.70;32.30;;;;;;5054311;28;20029;-77
2022/03/22 07:44:49;;;;;;;21.60;14.00;;;14.10;29.70;;;;;;5033815;28;20136;-77
2022/03/22 07:47:15;;;;;;;20.50;14.73;;;17.60;27.10;;;;;;5034036;28;20207;-77
2022/03/22 07:55:10;;;;;;;19.48;14.45;;;22.20;22.20;;;;;;5033722;28;20060;-77
2022/03/22 07:57:35;;;;;;;18.95;13.35;;;23.10;21.90;;;;;;5034124;28;20382;-77
2022/03/22 08:00:04;;;;;;;16.80;13.98;;;23.80;21.40;;;;;;5032842;28;20026;-77
2022/03/22 08:02:29;;;;;;;18.90;13.70;;;24.10;21.00;;;;;;5033749;28;20421;-76
2022/03/22 08:04:55;;;;;;;17.92;14.15;;;24.50;20.60;;;;;;5033416;28;20112;-76
2022/03/22 08:07:21;;;;;;;21.60;14.65;;;24.90;20.30;;;;;;5033975;28;20029;-77
2022/03/22 08:09:46;;;;;;;19.67;13.88;;;25.10;19.90;;;;;;5033484;28;20021;-77
2022/03/22 08:12:12;;;;;;;22.30;13.55;;;25.40;20.10;;;;;;5033477;28;20022;-77
2022/03/22 08:14:38;;;;;;;19.98;13.85;;;25.50;20.10;;;;;;5033964;28;20026;-77
2022/03/22 08:17:04;;;;;;;20.88;13.93;;;25.80;20.40;;;;;;5033255;28;20033;-77
2022/03/22 08:19:30;;;;;;;18.60;13.68;;;25.90;19.80;;;;;;5034289;28;20041;-76
2022/03/22 08:21:56;;;;;;;18.25;13.13;;;26.10;19.60;;;;;;5032864;28;20309;-76
2022/03/22 08:24:22;;;;;;;21.25;13.57;;;26.30;20.10;;;;;;5033568;28;20033;-76
2022/03/22 08:26:48;;;;;;;18.05;13.90;;;26.30;19.70;;;;;;5033572;28;20080;-76
2022/03/22 08:29:14;;;;;;;20.02;14.10;;;26.30;19.60;;;;;;5033641;28;20047;-76
2022/03/22 08:31:40;;;;;;;22.38;13.70;;;26.40;19.30;;;;;;5033287;28;20030;-76
2022/03/22 08:34:06;;;;;;;22.98;14.18;;;26.50;19.50;;;;;;5032943;28;20101;-76
2022/03/22 08:36:33;;;;;;;19.92;14.05;;;26.40;19.30;;;;;;5033057;28;20025;-76
2022/03/22 08:38:59;;;;;;;18.05;14.18;;;26.00;19.30;;;;;;5032853;28;20044;-76
2022/03/22 08:41:25;;;;;;;25.52;13.88;;;25.50;19.50;;;;;;5033498;28;20063;-77
2022/03/22 08:43:52;;;;;;;22.83;13.77;;;24.80;20.00;;;;;;5032618;28;20425;-77
2022/03/22 08:46:20;;;;;;;19.92;14.40;;;23.30;19.90;;;;;;5031904;28;20355;-76
2022/03/22 08:48:47;;;;;;;25.98;15.40;;;21.70;20.70;;;;;;5033328;28;20362;-77
2022/03/22 08:51:13;;;;;;;22.42;14.30;;;20.30;21.70;;;;;;5032513;28;20182;-76
2022/03/22 08:53:38;;;;;;;23.65;15.38;;;19.50;22.60;;;;;;5033172;28;20112;-77
2022/03/22 08:56:04;;;;;;;25.90;15.35;;;18.60;23.10;;;;;;5032565;28;20067;-77
2022/03/22 08:58:30;;;;;;;19.95;15.63;;;18.00;23.90;;;;;;5032756;28;20043;-76
2022/03/22 09:00:56;;;;;;;19.80;15.82;;;17.70;24.40;;;;;;5032106;28;20033;-77
2022/03/22 09:03:22;;;;;;;20.38;14.30;;;17.30;25.10;;;;;;5033062;28;20025;-76
2022/03/22 09:08:37;;;;;;;18.77;13.32;;;16.90;24.80;;;;;;5033009;28;20064;-76
2022/03/22 09:11:04;;;;;;;17.55;14.15;;;16.70;25.20;;;;;;5032044;28;20029;-78
2022/03/22 09:13:30;;;;;;;25.95;14.93;;;16.70;25.40;;;;;;5032599;28;20029;-77
2022/03/22 09:15:56;;;;;;;18.92;14.40;;;16.70;25.60;;;;;;5031920;28;20159;-76
2022/03/22 09:18:22;;;;;;;27.75;14.27;;;16.70;25.70;;;;;;5032338;28;20026;-77
2022/03/22 09:20:48;;;;;;;18.88;12.98;;;16.70;24.70;;;;;;5032696;28;20064;-76
2022/03/22 09:23:15;;;;;;;20.70;14.23;;;16.50;24.50;;;;;;5032218;28;20439;-77
2022/03/22 09:25:42;;;;;;;18.23;13.80;;;16.40;24.70;;;;;;5032487;28;20467;-76
2022/03/22 09:28:08;;;;;;;16.48;12.68;;;16.40;24.90;;;;;;5031752;28;20036;-77
2022/03/22 09:30:35;;;;;;;16.60;12.35;;;16.30;24.80;;;;;;5056522;28;20397;-77
2022/03/22 09:33:02;;;;;;;19.05;14.20;;;16.20;24.80;;;;;;5051820;28;20029;-77
2022/03/22 09:35:28;;;;;;;20.15;11.68;;;16.30;25.40;;;;;;5051524;28;20078;-76
2022/03/22 09:37:54;;;;;;;18.00;10.52;;;16.20;24.20;;;;;;5051700;28;20037;-77
2022/03/22 09:40:22;;;;;;;17.60;11.40;;;16.10;23.70;;;;;;5050978;28;20040;-76
2022/03/22 09:42:48;;;;;;;12.80;10.18;;;16.00;23.50;;;;;;5051950;28;20017;-75
2022/03/22 09:45:17;;;;;;;19.88;10.43;;;15.90;23.50;;;;;;5051285;28;20400;-77
2022/03/22 09:47:44;;;;;;;14.23;10.40;;;15.90;23.50;;;;;;5052130;28;20123;-77
2022/03/22 09:50:11;;;;;;;14.23;11.52;;;15.80;23.50;;;;;;5050088;28;20029;-77
2022/03/22 09:52:38;;;;;;;16.10;10.75;;;15.70;23.80;;;;;;5052149;28;20454;-78
2022/03/22 09:55:06;;;;;;;15.07;10.82;;;15.60;24.00;;;;;;5049743;28;20441;-77
2022/03/22 09:57:32;;;;;;;15.90;10.23;;;15.50;24.30;;;;;;5051932;28;20078;-78
2022/03/22 09:59:58;;;;;;;14.65;10.20;;;15.50;23.80;;;;;;5051404;28;20033;-76
2022/03/22 10:02:28;;;;;;;15.95;10.18;;;15.50;23.90;;;;;;5052447;28;20048;-76
2022/03/22 10:04:54;;;;;;;14.48;10.15;;;15.50;23.60;;;;;;5051993;28;20025;-77
2022/03/22 10:07:22;;;;;;;14.55;10.38;;;15.60;23.90;;;;;;5051966;28;20110;-76
2022/03/22 10:09:51;;;;;;;14.73;9.57;;;15.50;23.40;;;;;;5052011;28;20021;-78
2022/03/22 10:12:44;;;;;;;13.88;9.77;;;15.50;23.40;;;;;;5051120;28;20033;-76
2022/03/22 10:15:12;;;;;;;22.00;10.90;;;15.50;23.60;;;;;;5051197;28;20381;-77
2022/03/22 10:17:38;;;;;;;17.80;10.38;;;15.40;23.70;;;;;;5050484;28;20449;-77
2022/03/22 10:20:05;;;;;;;14.35;10.52;;;15.40;24.50;;;;;;5051040;28;20426;-77
2022/03/22 10:22:32;;;;;;;14.98;10.63;;;15.40;23.90;;;;;;5051653;28;20025;-76
2022/03/22 10:25:02;;;;;;;18.23;10.63;;;15.40;24.00;;;;;;5049520;28;20095;-77
2022/03/22 10:27:30;;;;;;;16.67;9.23;;;15.50;24.20;;;;;;5051558;28;20025;-77
2022/03/22 10:29:57;;;;;;;16.60;9.10;;;15.60;24.10;;;;;;5051561;28;20474;-78
2022/03/22 10:32:32;;;;;;;11.98;8.73;;;15.60;23.00;;;;;;5051766;28;20373;-76
2022/03/22 10:35:11;;;;;;;10.18;9.02;;;15.60;23.00;;;;;;5050988;28;20371;-77
2022/03/22 10:37:38;;;;;;;12.20;8.90;;;15.60;22.80;;;;;;5051504;28;20116;-77
2022/03/22 10:40:24;;;;;;;13.50;8.57;;;15.60;22.90;;;;;;5051100;28;20037;-77
2022/03/22 10:42:51;;;;;;;12.23;8.20;;;15.50;22.70;;;;;;5051588;28;20029;-77
2022/03/22 10:45:17;;;;;;;15.57;9.20;;;15.40;22.80;;;;;;5051131;28;20037;-76
2022/03/22 10:47:43;;;;;;;11.75;8.27;;;15.40;22.80;;;;;;5055228;28;20106;-76
2022/03/22 10:50:09;;;;;;;11.18;8.00;;;15.40;22.70;;;;;;5055150;28;20036;-76
2022/03/22 10:52:46;;;;;;;16.33;8.73;;;15.40;22.80;;;;;;5055382;28;20056;-76
2022/03/22 10:55:19;;;;;;;11.63;8.10;;;15.50;22.90;;;;;;5054915;28;20106;-76
2022/03/22 10:57:47;;;;;;;10.52;8.32;;;15.50;22.70;;;;;;5055150;28;20040;-77
2022/03/22 11:00:13;;;;;;;13.88;8.32;;;15.50;22.60;;;;;;5054161;28;20399;-77
2022/03/22 11:02:40;;;;;;;10.77;7.72;;;15.50;22.50;;;;;;5055337;28;20033;-76
2022/03/22 11:05:07;;;;;;;11.02;8.80;;;15.50;22.40;;;;;;5054299;28;20096;-77
2022/03/22 11:07:39;;;;;;;12.00;7.72;;;15.50;22.60;;;;;;5054818;28;20056;-76
2022/03/22 11:10:06;;;;;;;9.48;7.85;;;15.60;22.60;;;;;;5054023;28;20143;-76
2022/03/22 11:12:33;;;;;;;15.88;7.55;;;15.60;22.00;;;;;;5054757;28;20108;-77
2022/03/22 11:15:00;;;;;;;11.30;7.40;;;15.60;22.10;;;;;;5054757;28;20057;-77
2022/03/22 11:17:28;;;;;;;12.63;7.85;;;15.60;22.00;;;;;;5054733;28;20029;-76
2022/03/22 11:19:59;;;;;;;17.48;7.90;;;15.50;22.40;;;;;;5054591;28;20025;-77
2022/03/22 11:22:25;;;;;;;16.40;7.95;;;15.60;22.50;;;;;;5053833;28;20032;-77
2022/03/22 11:24:50;;;;;;;11.02;7.72;;;15.60;22.50;;;;;;5054737;28;20434;-75
2022/03/22 11:27:16;;;;;;;12.75;8.02;;;15.60;22.30;;;;;;5054175;28;20129;-76
2022/03/22 11:29:42;;;;;;;9.82;7.85;;;15.70;22.30;;;;;;5054356;28;20104;-76
2022/03/22 11:34:58;;;;;;;8.93;7.30;;;15.80;22.30;;;;;;5054840;28;20035;-76
2022/03/22 11:37:31;;;;;;;11.13;7.55;;;15.80;22.50;;;;;;5053860;28;20055;-76
2022/03/22 11:42:57;;;;;;;14.13;8.10;;;15.90;22.30;;;;;;5054299;28;20393;-77
2022/03/22 11:45:24;;;;;;;9.55;7.68;;;15.90;22.30;;;;;;5053606;28;20422;-77
2022/03/22 11:47:53;;;;;;;10.38;7.30;;;15.90;21.90;;;;;;5054369;28;20403;-76
2022/03/22 11:50:21;;;;;;;9.82;7.40;;;15.90;22.00;;;;;;5053701;28;20025;-76
2022/03/22 11:52:54;;;;;;;11.45;8.02;;;15.90;22.00;;;;;;5053805;28;20044;-76
2022/03/22 11:55:22;;;;;;;11.40;7.72;;;15.80;22.10;;;;;;5053529;28;20049;-75
2022/03/22 11:57:58;;;;;;;9.00;7.45;;;15.80;22.40;;;;;;5053133;28;20040;-76
2022/03/22 12:00:45;;;;;;;9.40;7.07;;;15.80;22.30;;;;;;5053545;28;20413;-76
2022/03/22 12:03:14;;;;;;;12.00;7.30;;;15.90;22.10;;;;;;5053553;28;20105;-76
2022/03/22 12:05:40;;;;;;;10.68;7.75;;;15.90;22.40;;;;;;5054058;28;20270;-76
2022/03/22 12:08:19;;;;;;;9.48;7.45;;;15.90;22.30;;;;;;5053112;28;20094;-76
2022/03/22 12:10:49;;;;;;;9.10;7.38;;;15.90;22.30;;;;;;5053572;28;20494;-76
2022/03/22 12:13:15;;;;;;;12.38;8.40;;;15.90;22.40;;;;;;5053055;28;20057;-77
2022/03/22 12:15:41;;;;;;;10.73;8.30;;;15.90;22.50;;;;;;5053625;28;20021;-75
2022/03/22 12:18:09;;;;;;;11.65;7.55;;;15.80;22.60;;;;;;5053030;28;20055;-76
2022/03/22 12:20:35;;;;;;;10.30;8.13;;;15.80;22.40;;;;;;5053577;28;20112;-76
2022/03/22 12:23:03;;;;;;;11.75;8.30;;;15.80;22.40;;;;;;5053461;28;20115;-76
2022/03/22 12:25:31;;;;;;;12.98;7.60;;;15.80;22.60;;;;;;5052966;28;20458;-76
2022/03/22 12:28:16;;;;;;;11.52;7.70;;;15.80;22.80;;;;;;5053483;28;20170;-76
2022/03/22 12:30:43;;;;;;;12.35;8.15;;;15.80;22.80;;;;;;5053198;28;20111;-76
2022/03/22 12:33:14;;;;;;;12.35;7.90;;;15.70;22.60;;;;;;5052881;28;20056;-76
2022/03/22 12:35:42;;;;;;;11.85;8.02;;;15.70;22.70;;;;;;5053156;28;20485;-76
2022/03/22 12:38:09;;;;;;;14.35;8.48;;;15.70;22.90;;;;;;5052216;28;20466;-76
2022/03/22 12:40:36;;;;;;;10.55;7.35;;;15.60;22.80;;;;;;5053387;28;20029;-77
2022/03/22 12:43:03;;;;;;;12.05;8.70;;;15.50;22.70;;;;;;5053364;28;20028;-76
2022/03/22 12:45:31;;;;;;;11.30;8.60;;;15.40;23.10;;;;;;5052563;28;20025;-77
2022/03/22 12:47:58;;;;;;;14.35;7.85;;;15.30;23.10;;;;;;5053194;28;20060;-77
2022/03/22 12:50:24;;;;;;;12.25;8.18;;;15.30;23.40;;;;;;5052645;28;20027;-77
2022/03/22 12:52:51;;;;;;;10.65;8.23;;;15.30;23.00;;;;;;5052733;28;20025;-76
2022/03/22 12:55:18;;;;;;;16.60;8.02;;;15.20;23.10;;;;;;5050901;28;20052;-77
2022/03/22 12:57:46;;;;;;;12.50;7.90;;;15.10;23.10;;;;;;5053068;28;20055;-76
2022/03/22 13:00:35;;;;;;;12.23;7.95;;;15.00;23.30;;;;;;5052303;28;20047;-76
2022/03/22 13:03:06;;;;;;;11.40;8.00;;;15.00;23.50;;;;;;5053030;28;20021;-75
2022/03/22 13:05:32;;;;;;;11.05;8.27;;;15.00;23.60;;;;;;5052036;28;20021;-76
2022/03/22 13:07:58;;;;;;;14.80;7.95;;;14.90;23.50;;;;;;5052771;28;20382;-76
2022/03/22 13:13:20;;;;;;;11.88;6.97;;;14.80;23.40;;;;;;5052420;28;20070;-77
2022/03/22 13:15:52;;;;;;;11.93;8.05;;;14.80;23.40;;;;;;5052809;28;20032;-76
2022/03/22 13:18:19;;;;;;;13.18;8.85;;;14.80;23.40;;;;;;5051998;28;20041;-75
2022/03/22 13:20:44;;;;;;;16.30;9.00;;;14.80;23.70;;;;;;5052398;28;20396;-77